This is the latest recevied weather packets stored in our database for station/object SV2BZQ-2. If no packets are shown the sender has not sent any weather packets the latest 10 day(s).
| Time | Temp. | Humidity | Pressure | Rain* | Wind** | Luminosity | Snow |
|---|---|---|---|---|---|---|---|
| 1777708350 | 12.78° C | 61% | 1020.5 hPa | 0 mm | - | 694 W/m² | - |
| 1777705026 | 11.11° C | 78% | 1020.8 hPa | 0 mm | - | 571 W/m² | - |
| 1777702426 | 10.56° C | 88% | 1021 hPa | 0 mm | - | 448 W/m² | - |
| 1777701001 | 10° C | 90% | 1020.8 hPa | 0 mm | - | 392 W/m² | - |
| 1777700744 | 10° C | 90% | 1020.8 hPa | 0 mm | - | 378 W/m² | - |
| 1777697405 | 8.33° C | 92% | 1020.8 hPa | 0 mm | - | 234 W/m² | - |
| 1777696819 | 8.33° C | 92% | 1020.8 hPa | 0 mm | - | 183 W/m² | - |
| 1777693173 | 8.33° C | 91% | 1020.3 hPa | 0 mm | - | 0 W/m² | - |
| 1777692892 | 8.33° C | 91% | 1020.3 hPa | 0 mm | - | 0 W/m² | - |
| 1777689999 | 8.33° C | 91% | 1020.3 hPa | 0 mm | - | 0 W/m² | - |
| 1777689253 | 8.33° C | 91% | 1020.3 hPa | 0 mm | - | 0 W/m² | - |
| 1777688471 | 8.33° C | 92% | 1020.5 hPa | 0 mm | - | 0 W/m² | - |
| 1777685992 | 8.33° C | 92% | 1020.9 hPa | 0 mm | - | 0 W/m² | - |
| 1777685182 | 8.33° C | 92% | 1021 hPa | 0 mm | - | 0 W/m² | - |
| 1777682557 | 8.33° C | 91% | 1021 hPa | 0 mm | - | 0 W/m² | - |
| 1777681057 | 8.33° C | 91% | 1021.1 hPa | 0 mm | - | 0 W/m² | - |
| 1777679244 | 8.33° C | 91% | 1021.3 hPa | 0 mm | - | 0 W/m² | - |
| 1777678979 | 8.33° C | 90% | 1021.4 hPa | 0 mm | - | 0 W/m² | - |
| 1777678251 | 8.33° C | 90% | 1021.5 hPa | 0 mm | - | 0 W/m² | - |
| 1777676214 | 8.33° C | 89% | 1021.7 hPa | 3.81 mm | - | 0 W/m² | - |
| 1777675849 | 8.33° C | 87% | 1022.2 hPa | 10.92 mm | - | 0 W/m² | - |
| 1777674405 | 8.33° C | 88% | 1021.9 hPa | 12.7 mm | - | 0 W/m² | - |
| 1777673544 | 8.33° C | 88% | 1022.1 hPa | 12.7 mm | - | 0 W/m² | - |
| 1777672999 | 11.11° C | 85% | 1021.6 hPa | 0 mm | - | 0 W/m² | - |
| 1777672640 | 8.33° C | 87% | 1022.2 hPa | 9.65 mm | - | 0 W/m² | - |
* Rain latest hour (hover to see other rain measurements)
** Current wind speed in m/s (hover to see current wind gust speed)